Time;durP1;ratioP1;P1;durP2;ratioP2;P2;SDS_P1;SDS_P2;PMS_P1;PMS_P2;Temp;Humidity;BMP_temperature;BMP_pressure;BME280_temperature;BME280_humidity;BME280_pressure;Samples;Min_cycle;Max_cycle;Signal;HPM_P1;HPM_P2
2021/03/16 00:00:01;;;;;;;22.55;11.40;;;;;;;6.18;74.45;102047.19;354911;27;1067;-66
2021/03/16 00:00:13;;;;;;;24.65;11.40;;;;;;;6.20;75.52;102043.69;354933;27;1083;-65
2021/03/16 00:00:24;;;;;;;22.80;11.10;;;;;;;6.20;74.27;102048.06;354866;27;1076;-66
2021/03/16 00:00:41;;;;;;;23.35;11.25;;;;;;;6.16;74.62;102048.97;352414;27;71805;-66
2021/03/16 00:00:52;;;;;;;26.46;11.70;;;;;;;6.14;74.79;102046.38;354865;27;2044;-66
2021/03/16 00:01:04;;;;;;;24.75;11.50;;;;;;;6.07;73.77;102042.91;354942;27;1079;-65
2021/03/16 00:01:16;;;;;;;22.83;11.50;;;;;;;6.06;74.90;102048.19;354909;27;1195;-66
2021/03/16 00:01:28;;;;;;;23.17;11.57;;;;;;;6.08;74.71;102051.66;354846;27;1107;-66
2021/03/16 00:01:40;;;;;;;24.73;11.43;;;;;;;6.08;74.55;102054.25;353313;27;994;-67
2021/03/16 00:01:51;;;;;;;23.00;11.18;;;;;;;6.10;75.04;102050.75;353397;28;1075;-67
2021/03/16 00:02:03;;;;;;;21.60;11.30;;;;;;;6.14;74.98;102048.09;353407;28;1134;-66
2021/03/16 00:02:14;;;;;;;23.60;11.48;;;;;;;6.15;74.88;102048.09;353361;28;1089;-66
2021/03/16 00:02:26;;;;;;;23.04;11.20;;;;;;;6.16;75.27;102049.84;353228;28;1420;-66
2021/03/16 00:02:37;;;;;;;23.58;11.25;;;;;;;6.18;74.71;102053.34;353433;27;1034;-66
2021/03/16 00:02:49;;;;;;;23.30;11.07;;;;;;;6.17;75.70;102051.59;351753;28;1762;-67
2021/03/16 00:03:00;;;;;;;22.75;11.23;;;;;;;6.18;75.37;102050.72;353041;28;1688;-67
2021/03/16 00:03:12;;;;;;;21.13;10.95;;;;;;;6.20;74.92;102048.94;351990;28;1161;-66
2021/03/16 00:03:23;;;;;;;22.27;11.13;;;;;;;6.20;75.73;102043.69;351938;28;1060;-66
2021/03/16 00:03:34;;;;;;;22.40;11.02;;;;;;;6.18;75.32;102047.19;352407;28;1017;-67
2021/03/16 00:03:45;;;;;;;22.98;11.30;;;;;;;6.18;75.06;102053.34;353395;28;1053;-66
2021/03/16 00:03:56;;;;;;;22.38;11.40;;;;;;;6.21;75.63;102049.78;353455;28;1152;-67
2021/03/16 00:04:08;;;;;;;21.15;11.35;;;;;;;6.15;74.33;102050.72;353384;28;1211;-68
2021/03/16 00:04:19;;;;;;;20.88;11.48;;;;;;;6.14;75.03;102054.25;351941;28;1151;-66
2021/03/16 00:04:30;;;;;;;23.25;11.77;;;;;;;6.15;74.95;102048.09;351782;28;1069;-66
2021/03/16 00:04:41;;;;;;;23.63;11.52;;;;;;;6.13;74.74;102047.25;350723;28;1152;-66
2021/03/16 00:04:52;;;;;;;23.08;11.43;;;;;;;6.13;74.85;102051.59;352010;28;1156;-67
2021/03/16 00:05:05;;;;;;;21.46;11.50;;;;;;;6.15;75.20;102053.31;351987;28;1084;-67
2021/03/16 00:05:16;;;;;;;20.80;11.43;;;;;;;6.11;75.00;102051.63;351855;28;1129;-67
2021/03/16 00:05:28;;;;;;;20.75;11.45;;;;;;;6.13;74.96;102054.22;352008;28;1131;-66
2021/03/16 00:05:39;;;;;;;20.10;11.35;;;;;;;6.07;74.56;102050.78;351961;28;1093;-66
2021/03/16 00:05:51;;;;;;;22.13;11.43;;;;;;;6.08;74.70;102056.88;351769;28;1774;-67
2021/03/16 00:06:05;;;;;;;22.85;11.88;;;;;;;6.04;75.06;102048.16;351974;28;1080;-67
2021/03/16 00:06:17;;;;;;;22.20;11.43;;;;;;;6.05;74.77;102049.91;351982;28;23737;-67
2021/03/16 00:06:28;;;;;;;23.83;11.73;;;;;;;6.05;74.34;102056.91;353316;28;1140;-67
2021/03/16 00:06:39;;;;;;;24.08;12.10;;;;;;;6.06;74.73;102048.19;353316;28;1258;-67
2021/03/16 00:06:52;;;;;;;24.15;12.15;;;;;;;6.09;75.47;102056.00;353400;28;1174;-66
2021/03/16 00:07:05;;;;;;;21.63;11.90;;;;;;;6.13;74.81;102062.09;353351;28;1167;-67
2021/03/16 00:07:20;;;;;;;22.63;11.55;;;;;;;6.12;75.52;102055.97;353195;27;1694;-66
2021/03/16 00:07:32;;;;;;;24.33;11.27;;;;;;;6.11;75.83;102052.50;351631;27;47842;-67
2021/03/16 00:07:43;;;;;;;23.65;11.70;;;;;;;6.16;75.91;102057.69;355010;27;819;-66
2021/03/16 00:07:54;;;;;;;25.20;12.20;;;;;;;6.19;75.47;102054.19;353417;28;1147;-66
2021/03/16 00:08:05;;;;;;;24.85;12.25;;;;;;;6.19;75.59;102052.41;353318;28;1076;-66
2021/03/16 00:08:16;;;;;;;24.70;12.13;;;;;;;6.18;75.67;102053.34;353343;28;1166;-66
2021/03/16 00:08:27;;;;;;;23.95;12.02;;;;;;;6.15;74.60;102055.94;351962;28;1139;-67
2021/03/16 00:08:38;;;;;;;25.55;11.93;;;;;;;6.15;75.00;102062.97;351861;28;980;-67
2021/03/16 00:08:51;;;;;;;25.70;11.45;;;;;;;6.05;74.72;102057.78;351956;28;2194;-66
2021/03/16 00:09:05;;;;;;;22.42;10.60;;;;;;;5.81;73.64;102053.56;349654;28;24351;-66
2021/03/16 00:09:16;;;;;;;19.38;9.70;;;;;;;5.68;74.78;102054.50;350575;28;1151;-67
2021/03/16 00:09:27;;;;;;;19.67;10.25;;;;;;;5.66;74.88;102058.84;350603;28;1034;-66
2021/03/16 00:09:38;;;;;;;19.65;10.90;;;;;;;5.71;74.64;102060.56;350492;28;1163;-66
2021/03/16 00:09:49;;;;;;;21.85;11.77;;;;;;;5.81;75.16;102060.53;351073;28;1206;-67
2021/03/16 00:10:00;;;;;;;23.50;11.95;;;;;;;5.85;75.38;102057.91;351819;28;1168;-66
2021/03/16 00:10:12;;;;;;;25.67;12.20;;;;;;;5.82;74.97;102057.91;351945;28;1137;-66
2021/03/16 00:10:23;;;;;;;25.52;11.93;;;;;;;5.87;75.17;102053.50;352624;28;1041;-66
2021/03/16 00:10:34;;;;;;;23.92;11.50;;;;;;;5.91;75.28;102055.22;353411;28;1072;-66
2021/03/16 00:10:46;;;;;;;23.23;11.77;;;;;;;5.97;75.00;102053.44;353337;28;1139;-66
2021/03/16 00:10:57;;;;;;;24.23;11.55;;;;;;;6.00;76.27;102051.69;353199;27;2399;-66
2021/03/16 00:11:08;;;;;;;24.23;11.82;;;;;;;6.02;75.90;102054.31;353443;27;1195;-66
2021/03/16 00:11:19;;;;;;;24.85;11.82;;;;;;;6.03;75.54;102051.69;354930;27;1154;-67
2021/03/16 00:11:30;;;;;;;24.83;12.23;;;;;;;6.03;76.27;102056.94;354887;27;2193;-67
2021/03/16 00:11:41;;;;;;;24.70;12.02;;;;;;;6.04;75.75;102053.41;354860;27;1144;-67
2021/03/16 00:11:52;;;;;;;24.15;11.82;;;;;;;6.06;76.15;102061.28;354782;27;1092;-66
2021/03/16 00:12:04;;;;;;;23.13;11.57;;;;;;;6.07;75.81;102052.50;354891;27;1159;-67
2021/03/16 00:12:15;;;;;;;23.50;11.40;;;;;;;6.07;75.92;102057.75;354927;27;1040;-67
2021/03/16 00:12:27;;;;;;;22.15;11.52;;;;;;;6.01;75.70;102056.06;354810;27;1128;-66
2021/03/16 00:12:38;;;;;;;23.75;11.88;;;;;;;6.00;75.29;102056.06;354827;27;1219;-67
2021/03/16 00:12:51;;;;;;;25.15;12.10;;;;;;;6.03;75.54;102053.41;354632;27;1257;-67
2021/03/16 00:13:02;;;;;;;25.70;12.23;;;;;;;6.04;75.78;102050.78;354849;27;1112;-67
2021/03/16 00:13:13;;;;;;;25.15;12.27;;;;;;;6.07;75.74;102055.13;354886;27;1152;-67
2021/03/16 00:13:24;;;;;;;23.23;12.23;;;;;;;6.03;75.48;102053.41;354950;27;1278;-67
2021/03/16 00:13:35;;;;;;;21.42;11.73;;;;;;;5.97;75.11;102051.69;355056;27;1964;-68
2021/03/16 00:13:46;;;;;;;21.00;11.55;;;;;;;5.98;74.94;102055.22;355675;27;3101;-67
2021/03/16 00:13:57;;;;;;;21.75;11.50;;;;;;;5.97;74.52;102053.44;356370;27;1064;-67
2021/03/16 00:14:08;;;;;;;22.65;12.20;;;;;;;6.00;75.55;102051.69;356299;27;1092;-67
2021/03/16 00:14:20;;;;;;;22.52;11.82;;;;;;;6.03;76.10;102056.03;356330;27;1160;-67
2021/03/16 00:14:31;;;;;;;22.48;11.75;;;;;;;6.02;75.99;102055.19;356316;27;1100;-67
2021/03/16 00:14:42;;;;;;;21.42;11.55;;;;;;;6.01;76.07;102050.81;356168;27;1129;-67
2021/03/16 00:14:53;;;;;;;22.80;11.93;;;;;;;6.02;75.94;102049.94;356234;27;1244;-67
2021/03/16 00:15:05;;;;;;;22.23;11.75;;;;;;;6.01;75.37;102055.19;356309;27;1021;-67
2021/03/16 00:15:16;;;;;;;22.23;11.55;;;;;;;6.01;75.98;102052.56;356370;27;1060;-67
2021/03/16 00:15:28;;;;;;;21.35;11.45;;;;;;;6.01;75.71;102056.06;356373;27;1028;-67
2021/03/16 00:15:39;;;;;;;21.85;11.70;;;;;;;6.06;76.12;102053.41;356193;27;1213;-67
2021/03/16 00:15:51;;;;;;;21.65;11.57;;;;;;;6.05;76.01;102051.66;356371;27;1096;-67
2021/03/16 00:16:03;;;;;;;21.63;11.68;;;;;;;6.03;75.91;102058.66;356293;27;1141;-67
2021/03/16 00:16:15;;;;;;;23.45;12.13;;;;;;;6.05;76.27;102055.16;356362;27;1112;-67
2021/03/16 00:16:27;;;;;;;24.60;12.32;;;;;;;6.07;75.84;102052.50;356230;27;1083;-67
2021/03/16 00:16:39;;;;;;;24.35;12.15;;;;;;;6.07;75.81;102052.50;356268;27;1235;-66
2021/03/16 00:16:51;;;;;;;23.10;11.80;;;;;;;6.06;75.41;102054.28;354766;27;1190;-67
2021/03/16 00:17:03;;;;;;;22.73;11.82;;;;;;;6.07;75.72;102049.91;354814;27;1191;-67
2021/03/16 00:17:14;;;;;;;22.85;11.77;;;;;;;6.09;76.23;102053.41;354739;27;1186;-68
2021/03/16 00:17:26;;;;;;;21.88;11.70;;;;;;;6.11;76.62;102054.25;354666;27;1112;-67
2021/03/16 00:17:37;;;;;;;21.88;11.40;;;;;;;6.12;76.51;102055.97;354826;27;1168;-66
2021/03/16 00:17:48;;;;;;;20.08;11.07;;;;;;;6.13;76.30;102052.50;354711;27;1160;-67
2021/03/16 00:18:01;;;;;;;20.92;11.65;;;;;;;6.03;75.29;102050.78;354816;27;1186;-67
2021/03/16 00:18:16;;;;;;;22.50;12.00;;;;;;;6.05;75.34;102052.53;354748;27;1525;-65
2021/03/16 00:18:28;;;;;;;22.73;11.90;;;;;;;6.07;75.97;102050.78;353124;27;48464;-66
2021/03/16 00:18:39;;;;;;;22.85;11.93;;;;;;;6.07;76.05;102055.13;354766;27;1137;-67
2021/03/16 00:18:50;;;;;;;26.38;12.50;;;;;;;6.07;75.86;102052.50;354787;27;1052;-67
2021/03/16 00:19:01;;;;;;;27.10;12.75;;;;;;;6.09;76.31;102056.00;355923;27;1133;-66
2021/03/16 00:19:12;;;;;;;25.52;12.40;;;;;;;6.09;75.88;102050.78;356314;27;1129;-66
2021/03/16 00:19:23;;;;;;;22.65;12.23;;;;;;;6.09;75.55;102053.41;356260;27;1144;-67
2021/03/16 00:19:35;;;;;;;21.95;12.20;;;;;;;6.08;75.71;102049.03;356346;27;1310;-65
2021/03/16 00:19:47;;;;;;;22.70;12.07;;;;;;;6.05;75.22;102049.91;356231;27;1227;-64
2021/03/16 00:19:58;;;;;;;23.35;11.73;;;;;;;6.07;75.95;102057.75;354760;27;1052;-67
2021/03/16 00:20:10;;;;;;;23.85;11.82;;;;;;;6.07;75.81;102058.66;353389;28;1065;-67
2021/03/16 00:20:21;;;;;;;22.70;11.85;;;;;;;6.08;76.45;102055.13;351909;28;1033;-67
2021/03/16 00:20:32;;;;;;;26.20;12.13;;;;;;;6.08;75.78;102054.25;351892;28;1171;-67
2021/03/16 00:20:44;;;;;;;25.50;11.80;;;;;;;6.09;76.08;102059.50;352041;28;1156;-66
2021/03/16 00:20:56;;;;;;;23.50;11.57;;;;;;;6.11;76.36;102060.38;351881;28;1114;-67
2021/03/16 00:21:07;;;;;;;23.63;11.63;;;;;;;6.11;76.29;102057.75;351903;28;1128;-66
2021/03/16 00:21:18;;;;;;;23.27;11.52;;;;;;;6.09;76.28;102056.88;351899;28;1142;-66
2021/03/16 00:21:29;;;;;;;22.13;11.43;;;;;;;6.12;76.48;102061.22;351929;28;1130;-67
2021/03/16 00:21:40;;;;;;;20.52;11.50;;;;;;;6.11;76.29;102057.75;351970;28;1190;-67
2021/03/16 00:21:52;;;;;;;21.13;11.55;;;;;;;6.09;76.15;102054.25;352312;28;1122;-67
2021/03/16 00:22:03;;;;;;;21.75;11.27;;;;;;;6.08;76.02;102059.50;353248;28;1133;-67
2021/03/16 00:22:14;;;;;;;25.00;11.55;;;;;;;6.11;76.46;102060.38;353465;28;1089;-67
2021/03/16 00:22:25;;;;;;;22.52;11.63;;;;;;;6.09;75.71;102059.50;353649;27;1147;-67
2021/03/16 00:22:51;;;;;;;23.20;11.68;;;;;;;6.12;76.25;102061.22;351531;27;94254;-67
2021/03/16 00:23:02;;;;;;;22.00;11.18;;;;;;;6.10;76.33;102058.63;354637;27;1088;-67
2021/03/16 00:23:13;;;;;;;20.80;11.05;;;;;;;6.12;75.58;102055.97;354839;27;1040;-67
2021/03/16 00:23:24;;;;;;;19.60;11.00;;;;;;;6.14;75.63;102064.72;354833;27;1210;-67
2021/03/16 00:23:35;;;;;;;20.85;11.50;;;;;;;6.14;76.29;102059.47;355415;27;1043;-67
2021/03/16 00:23:48;;;;;;;22.90;11.90;;;;;;;6.12;75.14;102063.84;356275;27;1145;-67
2021/03/16 00:23:59;;;;;;;22.30;11.80;;;;;;;6.07;74.99;102057.75;356269;27;1134;-67
2021/03/16 00:24:10;;;;;;;23.05;11.57;;;;;;;6.09;75.69;102058.63;353390;27;1650;-67
2021/03/16 00:24:21;;;;;;;23.58;11.42;;;;;;;6.10;75.72;102056.00;352648;28;1933;-67
2021/03/16 00:24:32;;;;;;;24.33;11.77;;;;;;;6.13;75.89;102057.72;353568;27;1071;-67
2021/03/16 00:24:43;;;;;;;20.98;11.75;;;;;;;6.12;76.52;102058.59;353834;27;1088;-67
2021/03/16 00:24:55;;;;;;;20.38;11.82;;;;;;;6.12;75.98;102061.22;353684;27;1040;-67
2021/03/16 00:25:06;;;;;;;21.23;11.63;;;;;;;6.11;76.59;102064.72;353836;27;1227;-66
2021/03/16 00:25:18;;;;;;;21.98;11.52;;;;;;;6.08;76.29;102054.25;353824;27;1286;-67
2021/03/16 00:25:29;;;;;;;21.80;11.60;;;;;;;6.07;75.32;102063.91;353813;27;1184;-68
2021/03/16 00:25:40;;;;;;;23.38;11.73;;;;;;;6.07;76.15;102057.75;353835;27;1105;-68
2021/03/16 00:25:51;;;;;;;22.60;11.77;;;;;;;6.09;75.70;102059.50;353745;27;1183;-66
2021/03/16 00:26:03;;;;;;;25.35;11.70;;;;;;;5.98;75.79;102058.72;354002;27;1166;-67
2021/03/16 00:26:15;;;;;;;23.23;10.55;;;;;;;5.77;75.35;102049.22;353925;27;1299;-66
2021/03/16 00:26:26;;;;;;;23.30;10.20;;;;;;;5.76;75.25;102063.19;352369;28;1167;-67
2021/03/16 00:26:37;;;;;;;23.65;10.85;;;;;;;5.80;74.51;102058.78;352361;28;1140;-67
2021/03/16 00:26:48;;;;;;;23.75;11.40;;;;;;;5.82;75.77;102057.91;352366;28;1252;-66
2021/03/16 00:26:59;;;;;;;20.45;11.43;;;;;;;5.86;75.74;102057.00;352398;28;1088;-66
2021/03/16 00:27:11;;;;;;;20.67;10.93;;;;;;;5.93;76.17;102060.44;352064;28;1667;-67
2021/03/16 00:27:22;;;;;;;21.58;10.77;;;;;;;5.97;75.84;102056.06;352428;28;1108;-68
2021/03/16 00:27:33;;;;;;;23.83;11.02;;;;;;;5.94;75.91;102044.69;352371;28;1133;-67
2021/03/16 00:27:44;;;;;;;21.88;11.18;;;;;;;5.98;76.04;102056.09;352390;28;1117;-67
2021/03/16 00:27:56;;;;;;;20.67;11.10;;;;;;;5.97;75.11;102062.16;351004;28;1100;-67
2021/03/16 00:28:07;;;;;;;18.75;10.80;;;;;;;5.93;75.90;102055.22;350997;28;2126;-67
2021/03/16 00:28:18;;;;;;;20.27;10.43;;;;;;;5.72;74.94;102061.47;351140;28;1060;-67
2021/03/16 00:28:30;;;;;;;21.00;10.77;;;;;;;5.66;74.56;102056.25;352438;28;1076;-67
2021/03/16 00:28:41;;;;;;;21.20;10.88;;;;;;;5.75;75.74;102061.44;352294;28;1235;-67
2021/03/16 00:28:52;;;;;;;21.33;11.57;;;;;;;5.81;75.20;102056.19;352381;28;1122;-67
2021/03/16 00:29:03;;;;;;;22.10;11.60;;;;;;;5.87;76.04;102052.63;352351;28;1211;-67
2021/03/16 00:29:14;;;;;;;22.23;11.35;;;;;;;5.88;75.49;102055.25;351027;28;1177;-67
2021/03/16 00:29:26;;;;;;;21.63;11.20;;;;;;;5.93;75.87;102063.06;351071;28;1479;-67
2021/03/16 00:29:37;;;;;;;22.13;11.27;;;;;;;5.94;76.34;102052.56;350862;28;1141;-67
2021/03/16 00:29:48;;;;;;;21.73;11.30;;;;;;;5.99;75.58;102059.56;350994;28;1081;-67
2021/03/16 00:29:59;;;;;;;19.83;11.40;;;;;;;5.99;76.43;102056.94;351024;28;1081;-67
2021/03/16 00:30:10;;;;;;;18.85;11.18;;;;;;;5.98;76.22;102057.84;351029;28;1315;-67
2021/03/16 00:30:22;;;;;;;20.55;11.30;;;;;;;5.98;75.62;102058.72;349569;28;1223;-67
2021/03/16 00:30:33;;;;;;;21.63;11.52;;;;;;;5.99;76.27;102056.94;349462;28;1212;-67
2021/03/16 00:30:44;;;;;;;22.73;11.55;;;;;;;6.00;75.58;102056.06;349579;28;1069;-67
2021/03/16 00:30:56;;;;;;;23.52;11.73;;;;;;;5.98;75.46;102052.59;349727;28;1076;-67
2021/03/16 00:31:07;;;;;;;22.42;12.02;;;;;;;5.97;75.36;102056.06;350958;28;1181;-67
2021/03/16 00:31:19;;;;;;;20.54;11.98;;;;;;;5.99;75.92;102059.56;351195;28;1108;-67
2021/03/16 00:31:31;;;;;;;19.10;11.60;;;;;;;5.93;75.75;102050.84;352286;28;1092;-67
2021/03/16 00:31:42;;;;;;;19.65;11.57;;;;;;;5.98;75.93;102061.34;352390;28;1217;-67
2021/03/16 00:31:53;;;;;;;20.13;11.38;;;;;;;6.00;75.58;102056.94;352404;28;1094;-67
2021/03/16 00:32:05;;;;;;;21.33;11.27;;;;;;;6.01;76.44;102058.69;350939;28;1073;-68
2021/03/16 00:32:16;;;;;;;22.80;11.65;;;;;;;6.02;76.16;102059.56;351452;28;1159;-67
2021/03/16 00:32:28;;;;;;;24.85;12.07;;;;;;;6.03;75.51;102058.66;352319;28;1096;-68
2021/03/16 00:32:39;;;;;;;27.88;12.57;;;;;;;6.04;76.27;102061.28;350971;28;2255;-67
2021/03/16 00:32:52;;;;;;;28.00;12.18;;;;;;;6.05;76.04;102063.03;351011;28;1163;-67
2021/03/16 00:33:03;;;;;;;25.40;11.68;;;;;;;6.02;75.73;102059.56;350941;28;1220;-66
2021/03/16 00:33:14;;;;;;;22.58;11.02;;;;;;;6.00;76.08;102059.56;350932;28;1181;-67
2021/03/16 00:33:25;;;;;;;22.20;10.98;;;;;;;6.02;75.85;102064.81;350978;28;2061;-67
2021/03/16 00:33:36;;;;;;;21.30;11.23;;;;;;;6.02;75.76;102065.69;350980;28;1207;-67
2021/03/16 00:33:49;;;;;;;21.40;11.40;;;;;;;6.01;75.48;102065.69;350964;28;1073;-67
2021/03/16 00:34:00;;;;;;;22.73;11.30;;;;;;;6.03;76.34;102062.19;351302;28;1906;-67
2021/03/16 00:34:11;;;;;;;22.63;11.25;;;;;;;6.02;75.89;102063.06;350968;28;1028;-68
2021/03/16 00:34:22;;;;;;;22.35;11.43;;;;;;;6.03;75.71;102063.91;351049;28;1069;-66
2021/03/16 00:34:34;;;;;;;23.05;11.52;;;;;;;6.05;76.65;102059.53;351416;28;1068;-66
2021/03/16 00:34:46;;;;;;;25.48;11.88;;;;;;;6.06;76.30;102059.53;350882;28;1929;-64
2021/03/16 00:34:57;;;;;;;26.20;12.15;;;;;;;6.05;76.42;102055.16;349418;28;1986;-65
2021/03/16 00:35:09;;;;;;;26.70;12.70;;;;;;;6.04;75.90;102063.91;349417;28;2045;-67
2021/03/16 00:35:20;;;;;;;26.67;12.10;;;;;;;5.90;75.08;102060.47;349577;28;1195;-67
2021/03/16 00:35:31;;;;;;;23.90;11.75;;;;;;;5.76;75.02;102068.44;349601;28;1020;-66
2021/03/16 00:35:42;;;;;;;23.25;11.38;;;;;;;5.65;74.87;102060.63;349629;28;1085;-67
2021/03/16 00:35:54;;;;;;;23.80;11.35;;;;;;;5.64;74.79;102064.13;348265;28;1049;-67
2021/03/16 00:36:06;;;;;;;23.02;11.52;;;;;;;5.75;75.79;102061.44;348574;28;1251;-67
2021/03/16 00:36:17;;;;;;;23.42;11.90;;;;;;;5.78;75.46;102061.41;349576;28;1232;-67
2021/03/16 00:36:28;;;;;;;22.50;11.88;;;;;;;5.81;76.08;102061.41;348193;28;1155;-67
2021/03/16 00:36:39;;;;;;;22.50;11.64;;;;;;;5.85;75.89;102060.53;348486;28;1228;-67
2021/03/16 00:36:51;;;;;;;22.27;11.55;;;;;;;5.89;76.08;102064.88;350036;28;1097;-67
2021/03/16 00:37:03;;;;;;;21.83;11.50;;;;;;;5.90;76.17;102065.72;350829;28;1188;-67
2021/03/16 00:37:14;;;;;;;23.05;11.40;;;;;;;5.88;76.06;102063.13;351094;28;914;-67
2021/03/16 00:37:25;;;;;;;23.10;11.43;;;;;;;5.90;75.60;102063.09;351326;28;1699;-68
2021/03/16 00:37:36;;;;;;;24.10;11.45;;;;;;;5.90;75.46;102061.34;352419;28;1051;-67
2021/03/16 00:37:47;;;;;;;23.20;11.60;;;;;;;5.93;75.54;102060.44;352376;28;1167;-67
2021/03/16 00:37:58;;;;;;;23.10;11.73;;;;;;;5.93;75.03;102061.34;352268;28;1204;-67
2021/03/16 00:38:10;;;;;;;23.40;12.00;;;;;;;5.95;76.03;102062.19;352368;28;1073;-66
2021/03/16 00:38:21;;;;;;;22.88;11.88;;;;;;;5.97;76.05;102063.94;352477;28;1073;-67
2021/03/16 00:38:32;;;;;;;22.65;11.65;;;;;;;5.98;76.65;102063.09;353894;27;1272;-67
2021/03/16 00:38:43;;;;;;;23.85;11.48;;;;;;;5.99;75.97;102059.56;353860;27;1138;-67
2021/03/16 00:38:54;;;;;;;25.33;11.50;;;;;;;5.99;76.34;102062.19;353851;27;1100;-67
2021/03/16 00:39:06;;;;;;;25.30;11.55;;;;;;;5.97;76.01;102062.16;353831;27;1168;-67
2021/03/16 00:39:17;;;;;;;25.15;12.10;;;;;;;5.97;76.59;102058.69;353871;27;1121;-67
2021/03/16 00:39:28;;;;;;;23.75;11.90;;;;;;;5.97;76.50;102066.56;353913;27;1135;-67
2021/03/16 00:39:39;;;;;;;23.65;12.10;;;;;;;5.98;75.95;102060.47;353865;27;1121;-67
2021/03/16 00:39:53;;;;;;;21.92;11.60;;;;;;;6.00;76.47;102063.94;352356;28;1370;-67
2021/03/16 00:40:05;;;;;;;21.95;11.75;;;;;;;6.00;76.79;102059.56;352368;28;1069;-67
2021/03/16 00:40:16;;;;;;;21.20;11.65;;;;;;;6.02;76.34;102059.56;352391;28;1286;-66
2021/03/16 00:40:27;;;;;;;22.40;11.65;;;;;;;6.02;76.71;102062.19;352368;28;1105;-66
2021/03/16 00:40:39;;;;;;;24.73;11.82;;;;;;;6.01;77.13;102066.53;352349;28;1156;-67
2021/03/16 00:40:50;;;;;;;26.55;12.23;;;;;;;6.03;76.80;102056.03;352258;28;1029;-67
2021/03/16 00:41:01;;;;;;;24.02;12.13;;;;;;;6.01;76.28;102065.69;352332;28;1136;-67
2021/03/16 00:41:12;;;;;;;21.67;11.93;;;;;;;5.98;75.71;102057.84;350950;28;1061;-67
2021/03/16 00:41:24;;;;;;;21.75;11.95;;;;;;;5.97;75.46;102061.31;350976;28;1212;-67
2021/03/16 00:41:35;;;;;;;22.88;11.75;;;;;;;5.95;75.64;102066.56;350997;28;1325;-67
2021/03/16 00:41:46;;;;;;;22.35;11.70;;;;;;;5.95;76.75;102062.19;351406;28;1057;-66
2021/03/16 00:41:57;;;;;;;22.98;11.95;;;;;;;5.99;75.65;102064.81;352359;28;1145;-66
2021/03/16 00:42:08;;;;;;;21.45;12.00;;;;;;;6.00;76.05;102062.19;352345;28;1110;-67
2021/03/16 00:42:19;;;;;;;20.77;11.93;;;;;;;6.00;75.90;102063.94;352418;28;1091;-67
2021/03/16 00:42:30;;;;;;;21.05;11.82;;;;;;;6.02;75.85;102068.28;351010;28;1049;-67
2021/03/16 00:42:42;;;;;;;22.83;12.20;;;;;;;6.02;76.25;102065.69;350886;28;1156;-67
2021/03/16 00:42:53;;;;;;;23.30;12.40;;;;;;;6.02;75.71;102065.69;350756;28;1741;-68
2021/03/16 00:43:04;;;;;;;23.02;12.10;;;;;;;6.03;75.76;102062.19;350974;28;1130;-66
2021/03/16 00:43:17;;;;;;;24.77;12.23;;;;;;;6.04;76.16;102060.41;352399;28;1024;-67
2021/03/16 00:43:28;;;;;;;26.45;12.02;;;;;;;6.03;76.23;102058.66;352367;28;1168;-68
2021/03/16 00:43:39;;;;;;;25.38;12.13;;;;;;;6.01;76.12;102069.16;352330;28;1341;-67
2021/03/16 00:43:52;;;;;;;23.77;11.98;;;;;;;6.02;76.18;102067.44;352351;28;1113;-67
2021/03/16 00:44:03;;;;;;;23.00;11.95;;;;;;;6.01;76.20;102058.69;352362;28;1180;-67
2021/03/16 00:44:16;;;;;;;23.26;11.88;;;;;;;6.04;75.81;102068.28;352353;28;1084;-67
2021/03/16 00:44:27;;;;;;;24.95;12.05;;;;;;;6.05;75.92;102059.53;353116;27;1131;-67
2021/03/16 00:44:38;;;;;;;21.55;11.82;;;;;;;6.05;76.32;102067.41;353850;27;1172;-66
2021/03/16 00:44:49;;;;;;;20.10;11.63;;;;;;;6.06;75.83;102064.78;353867;27;1122;-66
2021/03/16 00:45:01;;;;;;;20.84;12.00;;;;;;;6.04;76.35;102061.28;353900;27;1179;-67
2021/03/16 00:45:13;;;;;;;24.15;12.57;;;;;;;6.03;76.33;102069.16;353921;27;1060;-67
2021/03/16 00:45:24;;;;;;;24.25;12.43;;;;;;;6.02;75.81;102060.44;352352;28;1128;-67
2021/03/16 00:45:35;;;;;;;22.25;12.07;;;;;;;6.04;75.69;102061.28;352313;28;1151;-67
2021/03/16 00:45:47;;;;;;;20.67;11.60;;;;;;;6.03;76.12;102063.91;352234;28;2741;-67
2021/03/16 00:46:00;;;;;;;22.42;11.43;;;;;;;6.05;76.33;102060.41;351001;28;1041;-67
2021/03/16 00:46:11;;;;;;;23.25;11.18;;;;;;;6.04;76.72;102065.66;350957;28;1125;-66
2021/03/16 00:46:22;;;;;;;22.30;11.27;;;;;;;6.03;76.17;102069.16;350812;28;1148;-67
2021/03/16 00:46:35;;;;;;;22.20;11.30;;;;;;;6.03;75.81;102063.91;351016;28;1092;-67
2021/03/16 00:46:46;;;;;;;21.90;11.50;;;;;;;6.05;75.82;102064.78;350854;28;1098;-66
2021/03/16 00:46:57;;;;;;;20.52;11.55;;;;;;;6.05;76.62;102065.66;351016;28;1065;-66
2021/03/16 00:47:09;;;;;;;20.92;11.63;;;;;;;6.05;76.60;102064.78;351068;28;1026;-67
2021/03/16 00:47:20;;;;;;;21.00;11.77;;;;;;;6.04;75.87;102066.53;350021;28;1086;-67
2021/03/16 00:47:32;;;;;;;20.90;11.25;;;;;;;6.04;75.58;102063.03;350981;28;1274;-67
2021/03/16 00:47:43;;;;;;;19.55;10.88;;;;;;;6.04;76.25;102063.03;350956;28;1147;-66
2021/03/16 00:47:54;;;;;;;17.33;10.82;;;;;;;6.01;75.90;102060.44;351365;28;1601;-67
2021/03/16 00:48:06;;;;;;;19.23;10.95;;;;;;;6.04;76.00;102060.41;350971;28;1821;-67
2021/03/16 00:48:18;;;;;;;21.58;11.27;;;;;;;6.00;75.34;102058.69;350815;28;1109;-67
2021/03/16 00:48:30;;;;;;;23.42;11.38;;;;;;;5.99;76.11;102064.81;350924;28;1173;-67
2021/03/16 00:48:41;;;;;;;21.92;11.10;;;;;;;5.97;75.79;102059.56;350893;28;1152;-67
2021/03/16 00:48:52;;;;;;;22.64;10.98;;;;;;;6.01;75.98;102068.31;350947;28;1137;-67
2021/03/16 00:49:03;;;;;;;22.63;11.10;;;;;;;6.01;75.58;102063.94;349545;28;1125;-67
2021/03/16 00:49:14;;;;;;;23.75;11.43;;;;;;;6.00;75.84;102067.41;349525;28;1152;-67
2021/03/16 00:49:25;;;;;;;23.30;11.60;;;;;;;6.00;75.96;102063.94;349544;28;1144;-67
2021/03/16 00:49:36;;;;;;;22.65;11.65;;;;;;;6.01;76.26;102066.53;349613;28;1066;-67
2021/03/16 00:49:48;;;;;;;22.38;11.68;;;;;;;6.03;75.95;102066.53;349836;28;1049;-67
2021/03/16 00:50:00;;;;;;;23.58;11.48;;;;;;;6.03;76.16;102067.44;350963;28;1333;-67
2021/03/16 00:50:13;;;;;;;22.30;10.93;;;;;;;6.03;75.58;102066.53;351199;28;1057;-67
2021/03/16 00:50:24;;;;;;;21.77;10.77;;;;;;;6.03;76.14;102066.53;352414;28;1136;-67
2021/03/16 00:50:38;;;;;;;21.95;11.18;;;;;;;6.02;75.74;102067.44;350715;28;49159;-66
2021/03/16 00:50:49;;;;;;;22.80;11.25;;;;;;;6.04;75.69;102069.13;352394;28;1061;-67
2021/03/16 00:51:01;;;;;;;23.92;11.15;;;;;;;6.00;76.30;102059.56;353183;27;1033;-66
2021/03/16 00:51:12;;;;;;;21.98;10.75;;;;;;;6.05;75.96;102070.03;353830;27;1207;-67
2021/03/16 00:51:23;;;;;;;21.60;10.77;;;;;;;6.04;76.64;102069.13;353851;27;1085;-66
2021/03/16 00:51:34;;;;;;;22.13;10.85;;;;;;;6.04;76.36;102063.03;353993;27;1085;-66
2021/03/16 00:51:45;;;;;;;21.67;10.57;;;;;;;6.01;75.96;102066.53;353895;27;1175;-67
2021/03/16 00:51:58;;;;;;;21.33;10.60;;;;;;;6.04;76.02;102069.13;353770;27;1095;-67
2021/03/16 00:52:09;;;;;;;21.73;10.85;;;;;;;6.04;75.72;102069.13;352351;28;1228;-67
2021/03/16 00:52:20;;;;;;;21.67;11.02;;;;;;;6.04;76.41;102071.75;352353;28;1084;-68
2021/03/16 00:52:31;;;;;;;21.23;11.00;;;;;;;6.04;75.96;102063.91;352431;28;1068;-67
2021/03/16 00:52:43;;;;;;;22.30;10.85;;;;;;;6.04;76.28;102069.13;352356;28;1061;-67
2021/03/16 00:52:54;;;;;;;21.30;10.98;;;;;;;6.04;76.18;102068.28;352269;28;1111;-67
2021/03/16 00:53:14;;;;;;;21.55;11.40;;;;;;;6.02;76.01;102064.81;349979;28;71965;-67
2021/03/16 00:53:25;;;;;;;24.08;11.35;;;;;;;6.03;76.28;102071.78;352354;28;1175;-67
2021/03/16 00:53:36;;;;;;;23.20;11.27;;;;;;;6.05;76.08;102067.41;352421;28;1097;-67
2021/03/16 00:53:47;;;;;;;22.50;11.10;;;;;;;6.06;75.80;102066.53;350896;28;1125;-67
2021/03/16 00:53:58;;;;;;;20.63;10.90;;;;;;;6.06;75.56;102071.78;350961;28;1234;-67
2021/03/16 00:54:09;;;;;;;20.83;10.90;;;;;;;6.03;75.42;102066.53;350990;28;1239;-67
2021/03/16 00:54:21;;;;;;;20.73;11.23;;;;;;;6.00;75.65;102067.41;350944;28;1926;-67